sensor_id;sensor_type;location;lat;lon;timestamp;P1;durP1;ratioP1;P2;durP2;ratioP2
84125;SDS011;74222;58.696;11.254;2024-01-10T00:00:45;2.10;;;2.00;;
84125;SDS011;74222;58.696;11.254;2024-01-10T00:03:11;2.10;;;2.00;;
84125;SDS011;74222;58.696;11.254;2024-01-10T00:05:38;1.90;;;1.70;;
84125;SDS011;74222;58.696;11.254;2024-01-10T00:08:04;1.73;;;1.63;;
84125;SDS011;74222;58.696;11.254;2024-01-10T00:10:31;1.93;;;1.83;;
84125;SDS011;74222;58.696;11.254;2024-01-10T00:12:57;1.93;;;1.83;;
84125;SDS011;74222;58.696;11.254;2024-01-10T00:15:24;1.60;;;1.50;;
84125;SDS011;74222;58.696;11.254;2024-01-10T00:17:50;1.73;;;1.63;;
84125;SDS011;74222;58.696;11.254;2024-01-10T00:20:17;1.83;;;1.73;;
84125;SDS011;74222;58.696;11.254;2024-01-10T00:22:43;1.80;;;1.70;;
84125;SDS011;74222;58.696;11.254;2024-01-10T00:25:10;2.23;;;2.13;;
84125;SDS011;74222;58.696;11.254;2024-01-10T00:27:36;2.10;;;2.00;;
84125;SDS011;74222;58.696;11.254;2024-01-10T00:30:03;1.57;;;1.47;;
84125;SDS011;74222;58.696;11.254;2024-01-10T00:32:30;2.00;;;1.90;;
84125;SDS011;74222;58.696;11.254;2024-01-10T00:34:57;2.00;;;1.90;;
84125;SDS011;74222;58.696;11.254;2024-01-10T00:37:23;1.90;;;1.80;;
84125;SDS011;74222;58.696;11.254;2024-01-10T00:39:50;2.00;;;1.90;;
84125;SDS011;74222;58.696;11.254;2024-01-10T00:42:16;2.10;;;2.00;;
84125;SDS011;74222;58.696;11.254;2024-01-10T00:44:42;1.87;;;1.77;;
84125;SDS011;74222;58.696;11.254;2024-01-10T00:47:10;1.77;;;1.67;;
84125;SDS011;74222;58.696;11.254;2024-01-10T00:49:35;1.87;;;1.77;;
84125;SDS011;74222;58.696;11.254;2024-01-10T00:52:02;2.00;;;1.90;;
84125;SDS011;74222;58.696;11.254;2024-01-10T00:54:29;2.07;;;1.97;;
84125;SDS011;74222;58.696;11.254;2024-01-10T00:56:55;2.10;;;2.00;;
84125;SDS011;74222;58.696;11.254;2024-01-10T00:59:22;1.87;;;1.77;;
84125;SDS011;74222;58.696;11.254;2024-01-10T01:01:48;1.50;;;1.40;;
84125;SDS011;74222;58.696;11.254;2024-01-10T01:04:15;1.90;;;1.80;;
84125;SDS011;74222;58.696;11.254;2024-01-10T01:06:41;1.80;;;1.70;;
84125;SDS011;74222;58.696;11.254;2024-01-10T01:09:08;2.00;;;1.90;;
84125;SDS011;74222;58.696;11.254;2024-01-10T01:11:34;2.20;;;2.10;;
84125;SDS011;74222;58.696;11.254;2024-01-10T01:14:01;2.10;;;2.00;;
84125;SDS011;74222;58.696;11.254;2024-01-10T01:16:27;2.00;;;1.90;;
84125;SDS011;74222;58.696;11.254;2024-01-10T01:18:54;2.47;;;2.27;;
84125;SDS011;74222;58.696;11.254;2024-01-10T01:21:20;2.00;;;1.90;;
84125;SDS011;74222;58.696;11.254;2024-01-10T01:23:47;1.80;;;1.70;;
84125;SDS011;74222;58.696;11.254;2024-01-10T01:26:13;2.10;;;2.00;;
84125;SDS011;74222;58.696;11.254;2024-01-10T01:28:40;1.70;;;1.60;;
84125;SDS011;74222;58.696;11.254;2024-01-10T01:31:06;1.80;;;1.70;;
84125;SDS011;74222;58.696;11.254;2024-01-10T01:33:32;1.97;;;1.87;;
84125;SDS011;74222;58.696;11.254;2024-01-10T01:35:59;2.03;;;1.93;;
84125;SDS011;74222;58.696;11.254;2024-01-10T01:38:25;1.70;;;1.60;;
84125;SDS011;74222;58.696;11.254;2024-01-10T01:40:52;2.00;;;1.90;;
84125;SDS011;74222;58.696;11.254;2024-01-10T01:43:19;1.93;;;1.83;;
84125;SDS011;74222;58.696;11.254;2024-01-10T01:45:45;1.97;;;1.87;;
84125;SDS011;74222;58.696;11.254;2024-01-10T01:48:11;1.57;;;1.47;;
84125;SDS011;74222;58.696;11.254;2024-01-10T01:50:38;2.50;;;2.30;;
84125;SDS011;74222;58.696;11.254;2024-01-10T01:53:04;2.03;;;1.93;;
84125;SDS011;74222;58.696;11.254;2024-01-10T01:55:31;2.00;;;1.90;;
84125;SDS011;74222;58.696;11.254;2024-01-10T01:57:57;2.23;;;2.13;;
84125;SDS011;74222;58.696;11.254;2024-01-10T02:00:24;2.07;;;1.97;;
84125;SDS011;74222;58.696;11.254;2024-01-10T02:02:50;1.73;;;1.63;;
84125;SDS011;74222;58.696;11.254;2024-01-10T02:05:17;2.03;;;1.93;;
84125;SDS011;74222;58.696;11.254;2024-01-10T02:07:43;1.93;;;1.83;;
84125;SDS011;74222;58.696;11.254;2024-01-10T02:10:10;1.90;;;1.80;;
84125;SDS011;74222;58.696;11.254;2024-01-10T02:12:36;1.70;;;1.60;;
84125;SDS011;74222;58.696;11.254;2024-01-10T02:15:03;1.63;;;1.53;;
84125;SDS011;74222;58.696;11.254;2024-01-10T02:17:30;2.07;;;1.97;;
84125;SDS011;74222;58.696;11.254;2024-01-10T02:22:34;2.03;;;1.93;;
84125;SDS011;74222;58.696;11.254;2024-01-10T02:25:01;1.60;;;1.50;;
84125;SDS011;74222;58.696;11.254;2024-01-10T02:27:27;1.70;;;1.60;;
84125;SDS011;74222;58.696;11.254;2024-01-10T02:29:54;2.13;;;1.93;;
84125;SDS011;74222;58.696;11.254;2024-01-10T02:32:20;1.97;;;1.87;;
84125;SDS011;74222;58.696;11.254;2024-01-10T02:34:47;1.87;;;1.77;;
84125;SDS011;74222;58.696;11.254;2024-01-10T02:37:13;1.93;;;1.83;;
84125;SDS011;74222;58.696;11.254;2024-01-10T02:39:40;1.77;;;1.67;;
84125;SDS011;74222;58.696;11.254;2024-01-10T02:42:06;1.63;;;1.53;;
84125;SDS011;74222;58.696;11.254;2024-01-10T02:44:33;1.93;;;1.83;;
84125;SDS011;74222;58.696;11.254;2024-01-10T02:46:59;1.83;;;1.73;;
84125;SDS011;74222;58.696;11.254;2024-01-10T02:49:26;2.27;;;2.17;;
84125;SDS011;74222;58.696;11.254;2024-01-10T02:51:52;1.67;;;1.57;;
84125;SDS011;74222;58.696;11.254;2024-01-10T02:54:19;1.80;;;1.70;;
84125;SDS011;74222;58.696;11.254;2024-01-10T02:56:45;1.80;;;1.70;;
84125;SDS011;74222;58.696;11.254;2024-01-10T02:59:12;1.87;;;1.77;;
84125;SDS011;74222;58.696;11.254;2024-01-10T03:01:38;1.83;;;1.73;;
84125;SDS011;74222;58.696;11.254;2024-01-10T03:04:05;1.83;;;1.73;;
84125;SDS011;74222;58.696;11.254;2024-01-10T03:06:31;1.60;;;1.50;;
84125;SDS011;74222;58.696;11.254;2024-01-10T03:08:58;1.83;;;1.73;;
84125;SDS011;74222;58.696;11.254;2024-01-10T03:11:24;1.67;;;1.57;;
84125;SDS011;74222;58.696;11.254;2024-01-10T03:13:51;1.63;;;1.53;;
84125;SDS011;74222;58.696;11.254;2024-01-10T03:16:17;1.73;;;1.63;;
84125;SDS011;74222;58.696;11.254;2024-01-10T03:18:44;1.90;;;1.80;;
84125;SDS011;74222;58.696;11.254;2024-01-10T03:21:10;1.83;;;1.73;;
84125;SDS011;74222;58.696;11.254;2024-01-10T03:23:37;1.60;;;1.50;;
84125;SDS011;74222;58.696;11.254;2024-01-10T03:26:03;1.67;;;1.57;;
84125;SDS011;74222;58.696;11.254;2024-01-10T03:28:30;1.80;;;1.70;;
84125;SDS011;74222;58.696;11.254;2024-01-10T03:30:56;2.10;;;2.00;;
84125;SDS011;74222;58.696;11.254;2024-01-10T03:33:23;1.60;;;1.50;;
84125;SDS011;74222;58.696;11.254;2024-01-10T03:35:49;1.90;;;1.80;;
84125;SDS011;74222;58.696;11.254;2024-01-10T03:38:16;1.73;;;1.63;;
84125;SDS011;74222;58.696;11.254;2024-01-10T03:40:42;1.90;;;1.80;;
84125;SDS011;74222;58.696;11.254;2024-01-10T03:43:09;1.60;;;1.50;;
84125;SDS011;74222;58.696;11.254;2024-01-10T03:45:35;1.73;;;1.63;;
84125;SDS011;74222;58.696;11.254;2024-01-10T03:48:02;1.90;;;1.80;;
84125;SDS011;74222;58.696;11.254;2024-01-10T03:50:28;1.70;;;1.60;;
84125;SDS011;74222;58.696;11.254;2024-01-10T03:52:55;2.00;;;1.90;;
84125;SDS011;74222;58.696;11.254;2024-01-10T03:55:21;1.80;;;1.70;;
84125;SDS011;74222;58.696;11.254;2024-01-10T03:57:47;2.07;;;1.97;;
84125;SDS011;74222;58.696;11.254;2024-01-10T04:00:14;1.93;;;1.83;;
84125;SDS011;74222;58.696;11.254;2024-01-10T04:02:41;1.80;;;1.70;;
84125;SDS011;74222;58.696;11.254;2024-01-10T04:05:08;1.80;;;1.70;;
84125;SDS011;74222;58.696;11.254;2024-01-10T04:07:34;1.70;;;1.60;;
84125;SDS011;74222;58.696;11.254;2024-01-10T04:10:01;1.70;;;1.60;;
84125;SDS011;74222;58.696;11.254;2024-01-10T04:12:27;1.60;;;1.50;;
84125;SDS011;74222;58.696;11.254;2024-01-10T04:14:54;1.70;;;1.60;;
84125;SDS011;74222;58.696;11.254;2024-01-10T04:17:20;1.60;;;1.50;;
84125;SDS011;74222;58.696;11.254;2024-01-10T04:19:47;1.90;;;1.80;;
84125;SDS011;74222;58.696;11.254;2024-01-10T04:22:13;2.03;;;1.93;;
84125;SDS011;74222;58.696;11.254;2024-01-10T04:24:40;1.93;;;1.83;;
84125;SDS011;74222;58.696;11.254;2024-01-10T04:27:06;1.73;;;1.63;;
84125;SDS011;74222;58.696;11.254;2024-01-10T04:29:33;1.53;;;1.43;;
84125;SDS011;74222;58.696;11.254;2024-01-10T04:31:59;1.60;;;1.50;;
84125;SDS011;74222;58.696;11.254;2024-01-10T04:34:26;1.97;;;1.87;;
84125;SDS011;74222;58.696;11.254;2024-01-10T04:36:52;1.67;;;1.57;;
84125;SDS011;74222;58.696;11.254;2024-01-10T04:39:19;1.77;;;1.67;;
84125;SDS011;74222;58.696;11.254;2024-01-10T04:41:45;2.20;;;2.10;;
84125;SDS011;74222;58.696;11.254;2024-01-10T04:44:12;2.10;;;2.00;;
84125;SDS011;74222;58.696;11.254;2024-01-10T04:46:38;2.13;;;2.03;;
84125;SDS011;74222;58.696;11.254;2024-01-10T04:49:05;1.97;;;1.87;;
84125;SDS011;74222;58.696;11.254;2024-01-10T04:51:31;2.03;;;1.93;;
84125;SDS011;74222;58.696;11.254;2024-01-10T04:53:58;2.00;;;1.80;;
84125;SDS011;74222;58.696;11.254;2024-01-10T04:56:25;1.90;;;1.80;;
84125;SDS011;74222;58.696;11.254;2024-01-10T04:58:50;2.00;;;1.90;;
84125;SDS011;74222;58.696;11.254;2024-01-10T05:01:17;2.07;;;1.97;;
84125;SDS011;74222;58.696;11.254;2024-01-10T05:03:44;1.90;;;1.80;;
84125;SDS011;74222;58.696;11.254;2024-01-10T05:06:10;2.30;;;2.20;;
84125;SDS011;74222;58.696;11.254;2024-01-10T05:08:37;2.10;;;2.00;;
84125;SDS011;74222;58.696;11.254;2024-01-10T05:11:03;1.90;;;1.80;;
84125;SDS011;74222;58.696;11.254;2024-01-10T05:13:30;1.87;;;1.77;;
84125;SDS011;74222;58.696;11.254;2024-01-10T05:15:56;1.60;;;1.50;;
84125;SDS011;74222;58.696;11.254;2024-01-10T05:18:22;2.37;;;2.27;;
84125;SDS011;74222;58.696;11.254;2024-01-10T05:20:49;2.20;;;2.00;;
84125;SDS011;74222;58.696;11.254;2024-01-10T05:23:15;2.00;;;1.90;;
84125;SDS011;74222;58.696;11.254;2024-01-10T05:25:42;2.20;;;2.03;;
84125;SDS011;74222;58.696;11.254;2024-01-10T05:28:08;2.10;;;2.00;;
84125;SDS011;74222;58.696;11.254;2024-01-10T05:30:35;1.90;;;1.80;;
84125;SDS011;74222;58.696;11.254;2024-01-10T05:33:01;2.20;;;2.10;;
84125;SDS011;74222;58.696;11.254;2024-01-10T05:35:28;2.13;;;1.93;;
84125;SDS011;74222;58.696;11.254;2024-01-10T05:37:54;2.23;;;2.03;;
84125;SDS011;74222;58.696;11.254;2024-01-10T05:40:21;1.90;;;1.80;;
84125;SDS011;74222;58.696;11.254;2024-01-10T05:42:47;2.00;;;1.90;;
84125;SDS011;74222;58.696;11.254;2024-01-10T05:45:14;1.80;;;1.70;;
84125;SDS011;74222;58.696;11.254;2024-01-10T05:47:40;2.03;;;1.90;;
84125;SDS011;74222;58.696;11.254;2024-01-10T05:50:07;1.97;;;1.87;;
84125;SDS011;74222;58.696;11.254;2024-01-10T05:52:34;2.00;;;1.90;;
84125;SDS011;74222;58.696;11.254;2024-01-10T05:55:00;2.20;;;2.10;;
84125;SDS011;74222;58.696;11.254;2024-01-10T05:57:27;2.30;;;2.20;;
84125;SDS011;74222;58.696;11.254;2024-01-10T05:59:53;1.90;;;1.80;;
84125;SDS011;74222;58.696;11.254;2024-01-10T06:02:20;2.20;;;2.10;;
84125;SDS011;74222;58.696;11.254;2024-01-10T06:04:46;1.83;;;1.73;;
84125;SDS011;74222;58.696;11.254;2024-01-10T06:07:13;2.70;;;2.50;;
84125;SDS011;74222;58.696;11.254;2024-01-10T06:09:39;2.33;;;2.23;;
84125;SDS011;74222;58.696;11.254;2024-01-10T06:12:06;2.30;;;2.17;;
84125;SDS011;74222;58.696;11.254;2024-01-10T06:14:32;2.07;;;1.97;;
84125;SDS011;74222;58.696;11.254;2024-01-10T06:16:59;2.10;;;2.00;;
84125;SDS011;74222;58.696;11.254;2024-01-10T06:19:25;2.47;;;2.27;;
84125;SDS011;74222;58.696;11.254;2024-01-10T06:21:52;2.50;;;2.30;;
84125;SDS011;74222;58.696;11.254;2024-01-10T06:24:18;2.20;;;2.10;;
84125;SDS011;74222;58.696;11.254;2024-01-10T06:26:45;2.03;;;1.93;;
84125;SDS011;74222;58.696;11.254;2024-01-10T06:29:11;1.87;;;1.77;;
84125;SDS011;74222;58.696;11.254;2024-01-10T06:31:38;2.10;;;2.00;;
84125;SDS011;74222;58.696;11.254;2024-01-10T06:34:04;2.33;;;2.23;;
84125;SDS011;74222;58.696;11.254;2024-01-10T06:36:31;2.00;;;1.90;;
84125;SDS011;74222;58.696;11.254;2024-01-10T06:38:57;2.40;;;2.20;;
84125;SDS011;74222;58.696;11.254;2024-01-10T06:41:24;2.00;;;1.90;;
84125;SDS011;74222;58.696;11.254;2024-01-10T06:43:51;2.10;;;2.00;;
84125;SDS011;74222;58.696;11.254;2024-01-10T06:46:17;2.00;;;1.90;;
84125;SDS011;74222;58.696;11.254;2024-01-10T06:48:43;2.80;;;1.90;;
84125;SDS011;74222;58.696;11.254;2024-01-10T06:51:15;2.20;;;2.00;;
84125;SDS011;74222;58.696;11.254;2024-01-10T06:53:56;3.80;;;2.80;;
84125;SDS011;74222;58.696;11.254;2024-01-10T06:56:30;2.83;;;2.53;;
84125;SDS011;74222;58.696;11.254;2024-01-10T06:58:56;5.27;;;2.90;;
84125;SDS011;74222;58.696;11.254;2024-01-10T07:01:22;3.27;;;2.97;;
84125;SDS011;74222;58.696;11.254;2024-01-10T07:03:49;4.07;;;2.70;;
84125;SDS011;74222;58.696;11.254;2024-01-10T07:06:15;3.57;;;2.60;;
84125;SDS011;74222;58.696;11.254;2024-01-10T07:08:42;3.13;;;2.50;;
84125;SDS011;74222;58.696;11.254;2024-01-10T07:11:08;2.10;;;1.97;;
84125;SDS011;74222;58.696;11.254;2024-01-10T07:13:35;2.43;;;2.23;;
84125;SDS011;74222;58.696;11.254;2024-01-10T07:16:01;2.87;;;2.20;;
84125;SDS011;74222;58.696;11.254;2024-01-10T07:18:28;2.17;;;2.03;;
84125;SDS011;74222;58.696;11.254;2024-01-10T07:20:54;2.83;;;2.43;;
84125;SDS011;74222;58.696;11.254;2024-01-10T07:23:21;2.37;;;2.17;;
84125;SDS011;74222;58.696;11.254;2024-01-10T07:25:48;2.10;;;2.00;;
84125;SDS011;74222;58.696;11.254;2024-01-10T07:28:14;3.33;;;2.40;;
84125;SDS011;74222;58.696;11.254;2024-01-10T07:30:41;2.63;;;2.43;;
84125;SDS011;74222;58.696;11.254;2024-01-10T07:33:07;9.43;;;2.40;;
84125;SDS011;74222;58.696;11.254;2024-01-10T07:35:34;1.93;;;1.83;;
84125;SDS011;74222;58.696;11.254;2024-01-10T07:38:00;2.07;;;1.90;;
84125;SDS011;74222;58.696;11.254;2024-01-10T07:40:27;2.20;;;2.10;;
84125;SDS011;74222;58.696;11.254;2024-01-10T07:42:53;2.30;;;2.10;;
84125;SDS011;74222;58.696;11.254;2024-01-10T07:45:20;2.40;;;2.20;;
84125;SDS011;74222;58.696;11.254;2024-01-10T07:47:46;3.37;;;2.50;;
84125;SDS011;74222;58.696;11.254;2024-01-10T07:50:13;8.83;;;2.40;;
84125;SDS011;74222;58.696;11.254;2024-01-10T07:52:39;2.70;;;2.50;;
84125;SDS011;74222;58.696;11.254;2024-01-10T07:55:06;3.00;;;2.40;;
84125;SDS011;74222;58.696;11.254;2024-01-10T07:57:32;2.87;;;2.67;;
84125;SDS011;74222;58.696;11.254;2024-01-10T07:59:59;2.78;;;2.42;;
84125;SDS011;74222;58.696;11.254;2024-01-10T08:02:25;2.30;;;2.10;;
84125;SDS011;74222;58.696;11.254;2024-01-10T08:04:54;2.57;;;2.30;;
84125;SDS011;74222;58.696;11.254;2024-01-10T08:07:20;2.50;;;2.30;;
84125;SDS011;74222;58.696;11.254;2024-01-10T08:09:47;6.07;;;2.27;;
84125;SDS011;74222;58.696;11.254;2024-01-10T08:12:13;2.30;;;2.10;;
84125;SDS011;74222;58.696;11.254;2024-01-10T08:14:40;2.83;;;2.63;;
84125;SDS011;74222;58.696;11.254;2024-01-10T08:17:06;2.70;;;2.50;;
84125;SDS011;74222;58.696;11.254;2024-01-10T08:19:33;2.63;;;2.30;;
84125;SDS011;74222;58.696;11.254;2024-01-10T08:21:59;1.87;;;1.77;;
84125;SDS011;74222;58.696;11.254;2024-01-10T08:24:25;1.97;;;1.87;;
84125;SDS011;74222;58.696;11.254;2024-01-10T08:26:53;2.17;;;1.93;;
84125;SDS011;74222;58.696;11.254;2024-01-10T08:29:19;2.00;;;1.90;;
84125;SDS011;74222;58.696;11.254;2024-01-10T08:31:46;2.20;;;2.00;;
84125;SDS011;74222;58.696;11.254;2024-01-10T08:34:12;2.00;;;1.90;;
84125;SDS011;74222;58.696;11.254;2024-01-10T08:36:39;3.17;;;1.93;;
84125;SDS011;74222;58.696;11.254;2024-01-10T08:39:05;2.03;;;1.83;;
84125;SDS011;74222;58.696;11.254;2024-01-10T08:41:32;2.00;;;1.80;;
84125;SDS011;74222;58.696;11.254;2024-01-10T08:43:58;2.27;;;2.17;;
84125;SDS011;74222;58.696;11.254;2024-01-10T08:46:25;4.17;;;2.20;;
84125;SDS011;74222;58.696;11.254;2024-01-10T08:48:51;3.20;;;2.53;;
84125;SDS011;74222;58.696;11.254;2024-01-10T08:51:18;3.70;;;1.70;;
84125;SDS011;74222;58.696;11.254;2024-01-10T08:53:44;2.27;;;2.07;;
84125;SDS011;74222;58.696;11.254;2024-01-10T08:56:11;2.30;;;2.10;;
84125;SDS011;74222;58.696;11.254;2024-01-10T08:58:37;1.77;;;1.60;;
84125;SDS011;74222;58.696;11.254;2024-01-10T09:01:04;2.40;;;2.10;;
84125;SDS011;74222;58.696;11.254;2024-01-10T09:03:30;4.83;;;2.60;;
84125;SDS011;74222;58.696;11.254;2024-01-10T09:05:57;2.83;;;2.63;;
84125;SDS011;74222;58.696;11.254;2024-01-10T09:08:23;2.87;;;2.33;;
84125;SDS011;74222;58.696;11.254;2024-01-10T09:10:49;2.93;;;2.53;;
84125;SDS011;74222;58.696;11.254;2024-01-10T09:13:16;2.73;;;2.53;;
84125;SDS011;74222;58.696;11.254;2024-01-10T09:15:42;6.20;;;2.87;;
84125;SDS011;74222;58.696;11.254;2024-01-10T09:18:10;5.03;;;2.60;;
84125;SDS011;74222;58.696;11.254;2024-01-10T09:20:36;3.87;;;2.50;;
84125;SDS011;74222;58.696;11.254;2024-01-10T09:23:03;3.03;;;2.53;;
84125;SDS011;74222;58.696;11.254;2024-01-10T09:25:29;4.17;;;2.80;;
84125;SDS011;74222;58.696;11.254;2024-01-10T09:27:56;2.63;;;2.43;;
84125;SDS011;74222;58.696;11.254;2024-01-10T09:30:22;2.70;;;2.50;;
84125;SDS011;74222;58.696;11.254;2024-01-10T09:32:49;2.50;;;2.30;;
84125;SDS011;74222;58.696;11.254;2024-01-10T09:35:16;2.73;;;2.53;;
84125;SDS011;74222;58.696;11.254;2024-01-10T09:37:43;3.57;;;2.50;;
84125;SDS011;74222;58.696;11.254;2024-01-10T09:40:10;3.40;;;2.50;;
84125;SDS011;74222;58.696;11.254;2024-01-10T09:42:37;2.83;;;2.63;;
84125;SDS011;74222;58.696;11.254;2024-01-10T09:45:03;2.80;;;2.53;;
84125;SDS011;74222;58.696;11.254;2024-01-10T09:47:31;2.40;;;2.20;;
84125;SDS011;74222;58.696;11.254;2024-01-10T09:49:57;2.47;;;2.27;;
84125;SDS011;74222;58.696;11.254;2024-01-10T09:52:24;3.03;;;2.40;;
84125;SDS011;74222;58.696;11.254;2024-01-10T09:54:53;3.73;;;2.97;;
84125;SDS011;74222;58.696;11.254;2024-01-10T09:57:17;2.93;;;2.57;;
84125;SDS011;74222;58.696;11.254;2024-01-10T09:59:43;3.10;;;2.60;;
84125;SDS011;74222;58.696;11.254;2024-01-10T10:02:09;5.50;;;3.17;;
84125;SDS011;74222;58.696;11.254;2024-01-10T10:04:37;2.90;;;2.70;;
84125;SDS011;74222;58.696;11.254;2024-01-10T10:07:03;2.90;;;2.50;;
84125;SDS011;74222;58.696;11.254;2024-01-10T10:09:30;4.03;;;2.40;;
84125;SDS011;74222;58.696;11.254;2024-01-10T10:11:56;2.10;;;1.90;;
84125;SDS011;74222;58.696;11.254;2024-01-10T10:14:23;3.10;;;2.80;;
84125;SDS011;74222;58.696;11.254;2024-01-10T10:16:49;4.53;;;2.70;;
84125;SDS011;74222;58.696;11.254;2024-01-10T10:19:22;3.97;;;2.87;;
84125;SDS011;74222;58.696;11.254;2024-01-10T10:21:50;2.70;;;2.50;;
84125;SDS011;74222;58.696;11.254;2024-01-10T10:24:17;2.67;;;2.27;;
84125;SDS011;74222;58.696;11.254;2024-01-10T10:26:43;3.23;;;2.50;;
84125;SDS011;74222;58.696;11.254;2024-01-10T10:29:10;3.67;;;2.57;;
84125;SDS011;74222;58.696;11.254;2024-01-10T10:31:36;2.90;;;2.60;;
84125;SDS011;74222;58.696;11.254;2024-01-10T10:34:03;2.70;;;2.50;;
84125;SDS011;74222;58.696;11.254;2024-01-10T10:36:30;2.73;;;2.53;;
84125;SDS011;74222;58.696;11.254;2024-01-10T10:38:56;3.50;;;2.13;;
84125;SDS011;74222;58.696;11.254;2024-01-10T10:41:22;3.90;;;2.60;;
84125;SDS011;74222;58.696;11.254;2024-01-10T10:43:49;2.40;;;2.20;;
84125;SDS011;74222;58.696;11.254;2024-01-10T10:46:15;2.50;;;2.30;;
84125;SDS011;74222;58.696;11.254;2024-01-10T10:48:42;4.30;;;2.30;;
84125;SDS011;74222;58.696;11.254;2024-01-10T10:51:15;3.07;;;2.27;;
84125;SDS011;74222;58.696;11.254;2024-01-10T10:53:45;2.00;;;1.90;;
84125;SDS011;74222;58.696;11.254;2024-01-10T10:56:12;3.13;;;2.73;;
84125;SDS011;74222;58.696;11.254;2024-01-10T10:58:40;2.60;;;2.40;;
84125;SDS011;74222;58.696;11.254;2024-01-10T11:01:06;2.43;;;2.27;;
84125;SDS011;74222;58.696;11.254;2024-01-10T11:03:35;5.10;;;2.70;;
84125;SDS011;74222;58.696;11.254;2024-01-10T11:06:02;2.70;;;2.50;;
84125;SDS011;74222;58.696;11.254;2024-01-10T11:08:28;3.00;;;2.40;;
84125;SDS011;74222;58.696;11.254;2024-01-10T11:10:55;2.47;;;2.27;;
84125;SDS011;74222;58.696;11.254;2024-01-10T11:13:26;3.10;;;2.90;;
84125;SDS011;74222;58.696;11.254;2024-01-10T11:17:07;2.60;;;2.40;;
84125;SDS011;74222;58.696;11.254;2024-01-10T11:22:09;2.33;;;2.13;;
84125;SDS011;74222;58.696;11.254;2024-01-10T11:24:16;2.70;;;2.50;;
84125;SDS011;74222;58.696;11.254;2024-01-10T11:26:44;2.40;;;2.20;;
84125;SDS011;74222;58.696;11.254;2024-01-10T11:29:09;2.63;;;2.23;;
84125;SDS011;74222;58.696;11.254;2024-01-10T11:31:36;2.80;;;2.60;;
84125;SDS011;74222;58.696;11.254;2024-01-10T11:34:02;3.60;;;2.60;;
84125;SDS011;74222;58.696;11.254;2024-01-10T11:36:28;2.50;;;2.30;;
84125;SDS011;74222;58.696;11.254;2024-01-10T11:38:58;2.73;;;2.53;;
84125;SDS011;74222;58.696;11.254;2024-01-10T11:41:24;2.70;;;2.50;;
84125;SDS011;74222;58.696;11.254;2024-01-10T11:46:28;2.70;;;2.50;;
84125;SDS011;74222;58.696;11.254;2024-01-10T11:48:54;2.43;;;2.23;;
84125;SDS011;74222;58.696;11.254;2024-01-10T11:51:21;2.40;;;2.20;;
84125;SDS011;74222;58.696;11.254;2024-01-10T11:53:47;2.70;;;2.50;;
84125;SDS011;74222;58.696;11.254;2024-01-10T11:56:15;2.27;;;2.07;;
84125;SDS011;74222;58.696;11.254;2024-01-10T12:01:18;2.60;;;2.40;;
84125;SDS011;74222;58.696;11.254;2024-01-10T12:03:44;2.87;;;2.20;;
84125;SDS011;74222;58.696;11.254;2024-01-10T12:06:11;2.40;;;2.20;;
84125;SDS011;74222;58.696;11.254;2024-01-10T12:08:37;2.03;;;1.93;;
84125;SDS011;74222;58.696;11.254;2024-01-10T12:11:04;2.30;;;2.10;;
84125;SDS011;74222;58.696;11.254;2024-01-10T12:13:30;2.33;;;2.20;;
84125;SDS011;74222;58.696;11.254;2024-01-10T12:15:57;1.93;;;1.83;;
84125;SDS011;74222;58.696;11.254;2024-01-10T12:18:23;2.17;;;2.07;;
84125;SDS011;74222;58.696;11.254;2024-01-10T12:20:50;2.47;;;2.27;;
84125;SDS011;74222;58.696;11.254;2024-01-10T12:23:16;2.07;;;1.97;;
84125;SDS011;74222;58.696;11.254;2024-01-10T12:25:43;2.47;;;2.27;;
84125;SDS011;74222;58.696;11.254;2024-01-10T12:28:09;2.27;;;2.07;;
84125;SDS011;74222;58.696;11.254;2024-01-10T12:30:36;2.47;;;2.27;;
84125;SDS011;74222;58.696;11.254;2024-01-10T12:33:02;2.58;;;2.28;;
84125;SDS011;74222;58.696;11.254;2024-01-10T12:35:29;3.30;;;2.40;;
84125;SDS011;74222;58.696;11.254;2024-01-10T12:37:55;2.20;;;2.10;;
84125;SDS011;74222;58.696;11.254;2024-01-10T12:40:23;2.40;;;2.20;;
84125;SDS011;74222;58.696;11.254;2024-01-10T12:42:49;2.60;;;2.40;;
84125;SDS011;74222;58.696;11.254;2024-01-10T12:45:20;2.40;;;2.20;;
84125;SDS011;74222;58.696;11.254;2024-01-10T12:47:47;2.33;;;2.07;;
84125;SDS011;74222;58.696;11.254;2024-01-10T12:50:13;2.60;;;2.40;;
84125;SDS011;74222;58.696;11.254;2024-01-10T12:52:40;2.50;;;2.30;;
84125;SDS011;74222;58.696;11.254;2024-01-10T12:55:06;2.00;;;1.90;;
84125;SDS011;74222;58.696;11.254;2024-01-10T12:57:33;2.70;;;2.50;;
84125;SDS011;74222;58.696;11.254;2024-01-10T12:59:59;2.73;;;2.53;;
84125;SDS011;74222;58.696;11.254;2024-01-10T13:02:26;2.67;;;2.47;;
84125;SDS011;74222;58.696;11.254;2024-01-10T13:04:52;3.23;;;2.83;;
84125;SDS011;74222;58.696;11.254;2024-01-10T13:07:20;2.63;;;2.43;;
84125;SDS011;74222;58.696;11.254;2024-01-10T13:09:47;2.87;;;2.67;;
84125;SDS011;74222;58.696;11.254;2024-01-10T13:12:13;2.43;;;2.23;;
84125;SDS011;74222;58.696;11.254;2024-01-10T13:14:40;2.67;;;2.47;;
84125;SDS011;74222;58.696;11.254;2024-01-10T13:17:06;2.40;;;2.20;;
84125;SDS011;74222;58.696;11.254;2024-01-10T13:19:33;2.97;;;2.77;;
84125;SDS011;74222;58.696;11.254;2024-01-10T13:21:59;2.57;;;2.37;;
84125;SDS011;74222;58.696;11.254;2024-01-10T13:24:26;2.37;;;2.20;;
84125;SDS011;74222;58.696;11.254;2024-01-10T13:26:52;19.20;;;2.60;;
84125;SDS011;74222;58.696;11.254;2024-01-10T13:29:19;2.40;;;2.13;;
84125;SDS011;74222;58.696;11.254;2024-01-10T13:31:45;2.20;;;2.00;;
84125;SDS011;74222;58.696;11.254;2024-01-10T13:34:12;5.53;;;2.30;;
84125;SDS011;74222;58.696;11.254;2024-01-10T13:36:38;3.93;;;2.20;;
84125;SDS011;74222;58.696;11.254;2024-01-10T13:39:05;2.43;;;2.23;;
84125;SDS011;74222;58.696;11.254;2024-01-10T13:41:31;2.40;;;2.17;;
84125;SDS011;74222;58.696;11.254;2024-01-10T13:43:58;2.17;;;2.07;;
84125;SDS011;74222;58.696;11.254;2024-01-10T13:46:24;2.87;;;1.60;;
84125;SDS011;74222;58.696;11.254;2024-01-10T13:48:50;2.20;;;2.00;;
84125;SDS011;74222;58.696;11.254;2024-01-10T13:51:17;3.70;;;1.70;;
84125;SDS011;74222;58.696;11.254;2024-01-10T13:53:43;1.70;;;1.60;;
84125;SDS011;74222;58.696;11.254;2024-01-10T13:56:10;1.60;;;1.50;;
84125;SDS011;74222;58.696;11.254;2024-01-10T13:58:36;2.43;;;1.93;;
84125;SDS011;74222;58.696;11.254;2024-01-10T14:01:03;3.03;;;1.80;;
84125;SDS011;74222;58.696;11.254;2024-01-10T14:03:29;2.57;;;1.90;;
84125;SDS011;74222;58.696;11.254;2024-01-10T14:05:57;1.93;;;1.83;;
84125;SDS011;74222;58.696;11.254;2024-01-10T14:08:23;1.83;;;1.73;;
84125;SDS011;74222;58.696;11.254;2024-01-10T14:10:50;3.37;;;2.03;;
84125;SDS011;74222;58.696;11.254;2024-01-10T14:13:16;3.57;;;1.80;;
84125;SDS011;74222;58.696;11.254;2024-01-10T14:15:43;3.60;;;2.27;;
84125;SDS011;74222;58.696;11.254;2024-01-10T14:18:09;4.50;;;2.20;;
84125;SDS011;74222;58.696;11.254;2024-01-10T14:20:36;5.00;;;2.10;;
84125;SDS011;74222;58.696;11.254;2024-01-10T14:23:02;4.43;;;2.30;;
84125;SDS011;74222;58.696;11.254;2024-01-10T14:25:29;4.50;;;1.90;;
84125;SDS011;74222;58.696;11.254;2024-01-10T14:27:55;2.57;;;2.30;;
84125;SDS011;74222;58.696;11.254;2024-01-10T14:30:22;3.27;;;2.07;;
84125;SDS011;74222;58.696;11.254;2024-01-10T14:32:48;2.43;;;2.23;;
84125;SDS011;74222;58.696;11.254;2024-01-10T14:35:15;2.73;;;2.50;;
84125;SDS011;74222;58.696;11.254;2024-01-10T14:37:41;2.87;;;2.50;;
84125;SDS011;74222;58.696;11.254;2024-01-10T14:40:08;3.00;;;2.80;;